x

Sentry Shoal (46131) Wave Buoy

11:00 - Sat 28th Mar 2015 All times are PDT. -7 hours from GMT.

  • Sig Wave height 4.3ft
  • Peak Period 4s
  • Wind
    25mph, 34mph gusts
  • Sea Temp 49°f
  • Aire Temp 51°f
  • Sea Pressure 1021mb
  • Sentry Shoal
  • Sentry Shoal

More Historic Weather Station data

Upgrade to MSW Pro to gain access to the past 30 days of data for over 8000 Wavebouys and Weather Stations around the globe.

Join Pro

Comparision Forecast

View Surf forecast
   
sáb 03/28 11:00 4.5ft 4s 25 34 mph 1021mb 49f 51f
10:00 3.5ft 4s 25 29 mph 1021.2mb 49f 51f
9:00 3ft 4s 20 25 mph 1021.9mb 49f 51f
8:00 3ft 4s 22 25 mph 1021.8mb 49f 51f
7:00 3ft 4s 20 27 mph 1021.8mb 49f 51f
6:00 3ft 4s 18 22 mph 1022.5mb 49f 51f
5:00 3.5ft 4s 18 22 mph 1022.7mb 49f 51f
4:00 3.5ft 4s 22 27 mph 1022.8mb 49f 51f
3:00 2.5ft 3s 25 29 mph 1022.8mb 49f 51f
2:00 1.6ft 3s 18 22 mph 1023.1mb 49f 51f
1:00 0.7ft 2s 16 20 mph 1023.1mb 49f 51f
12:00 0.3ft 2s 9 11 mph 1023.2mb 49f 49f
11:00 0.3ft 2s 9
mph
1022.9mb 49f 49f
10:00 0.3ft 3s 4
mph
1022.3mb 49f 49f
9:00 0.7ft 3s  -  2 mph 1021.3mb 49f 50f
8:00 0.7ft 3s 4
mph
1020.4mb 49f 49f
7:00 1ft 3s 4 7 mph 1019.1mb 49f 48f
6:00 1.3ft 3s 7 11 mph 1017.6mb 49f 49f
5:00 1.3ft 3s 16 18 mph 1016mb 49f 49f
4:00 2ft 3s 13 16 mph 1014.9mb 49f 49f
2:00 1.3ft 4s 22 29 mph 1012.3mb 49f 49f
1:00 2ft 4s 7 9 mph 1011.2mb 49f 52f
12:00 2.5ft 4s 11 13 mph 1010.3mb 49f 52f
vie 03/27 11:00 2ft 4s 16 20 mph 1009.7mb 49f 53f
10:00 2.5ft 4s 18 22 mph 1009.4mb 49f 52f
9:00 2.5ft 4s 13 20 mph 1009.7mb 49f 52f
8:00 2.5ft 4s 16 18 mph 1008.7mb 49f 53f
7:00 3ft 4s 20 25 mph 1009.4mb 49f 53f
6:00 3ft 4s 22 27 mph 1009.3mb 49f 52f
5:00 3ft 4s 18 22 mph 1010.4mb 49f 52f
4:00 3ft 4s 18 22 mph 1010.5mb 49f 52f
3:00 3.5ft 4s 18 25 mph 1011.4mb 49f 53f
2:00 4ft 4s 22 27 mph 1011.3mb 49f 54f
1:00 3.5ft 4s 25 29 mph 1011.7mb 49f 53f
12:00 2.5ft 4s 18 22 mph 1012.6mb 49f 52f
11:00 2.5ft 4s 16 18 mph 1013.7mb 49f 51f
10:00 1.6ft 4s 13 20 mph 1014.4mb 49f 51f
9:00 1.3ft 3s 9 11 mph 1014.6mb 49f 50f
8:00 1.6ft 3s 16 18 mph 1014.6mb 49f 51f
7:00 1.6ft 3s 13 16 mph 1014.7mb 49f 51f
6:00 1.3ft 4s 16
mph
1015.2mb 49f 51f
5:00 1.3ft 3s 13
mph
1015.8mb 49f 51f
4:00 1.3ft 3s 16 18 mph 1016.4mb 49f 51f
3:00 1.3ft 3s 16 18 mph 1017.1mb 49f 52f
2:00 1ft 2s 13 16 mph 1017.7mb 49f 51f
1:00 1ft 3s 9 11 mph 1018.8mb 49f 51f
12:00 1.3ft 3s 11
mph
1019.4mb 49f 52f
jue 03/26 11:00 1ft 3s 13 16 mph 1019.7mb 49f 52f
10:00 1ft 3s 13 16 mph 1019.9mb 49f 52f
9:00 1ft 3s 13 16 mph 1020.3mb 49f 53f
8:00 1ft 4s 11
mph
1020.3mb 49f 51f
7:00 1.3ft 4s 7 9 mph 1020.7mb 49f 52f
6:00 1.6ft 3s 16 18 mph 1020.8mb 49f 53f
5:00 1.6ft 4s 11 13 mph 1021.6mb 49f 52f
4:00 2ft 4s 9 11 mph 1022.1mb 49f 52f
3:00 2.5ft 4s 16 20 mph 1022.2mb 49f 53f
2:00 2.5ft 4s 18 22 mph 1022.5mb 49f 52f
1:00 2.5ft 4s 16 18 mph 1022.8mb 49f 51f
12:00 3ft 4s 20 22 mph 1022.8mb 49f 52f
11:00 3.5ft 4s 18 22 mph 1022.8mb 49f 51f
10:00 3.5ft 4s 22 27 mph 1022.7mb 49f 52f
9:00 3.5ft 4s 27 29 mph 1022.3mb 49f 52f
8:00 3.5ft 4s 18 22 mph 1022.4mb 49f 51f
7:00 3.5ft 5s 18 22 mph 1022.2mb 49f 51f
6:00 3.5ft 5s 25 29 mph 1021.7mb 49f 52f
5:00 4ft 4s 20 25 mph 1022.2mb 49f 52f
4:00 4.5ft 5s 18 22 mph 1022.2mb 49f 51f
3:00 4ft 5s 20 25 mph 1022.1mb 49f 51f
2:00 4ft 5s 18 22 mph 1022mb 49f 51f
1:00 3.5ft 4s 9 13 mph 1022.3mb 49f 50f
12:00 2.5ft 4s 11 13 mph 1022.1mb 49f 50f
mié 03/25 11:00 2.5ft 4s 13 16 mph 1022.2mb 49f 50f
10:00 2ft 4s 11 13 mph 1022mb 49f 49f
9:00 1.6ft 4s 9 11 mph 1022mb 49f 49f
8:00 1.6ft 4s 13 18 mph 1021.6mb 49f 49f
7:00 1.6ft 5s 13 16 mph 1021.7mb 49f 49f
6:00 2.5ft 4s 11 13 mph 1022.1mb 49f 49f
5:00 3ft 5s 13 16 mph 1021.9mb 49f 49f
4:00 3.5ft 5s 13 16 mph 1021.7mb 49f 48f
3:00 3ft 5s 13 16 mph 1021.4mb 49f 48f
2:00 3.5ft 5s 16 18 mph 1020.9mb 49f 47f
1:00 3.5ft 5s 16 18 mph 1021.2mb 49f 47f
12:00 4.5ft 6s 18 20 mph 1020.8mb 49f 47f
11:00 4.5ft 6s 18 22 mph 1020.2mb 49f 47f
10:00 5ft 6s 20 22 mph 1019.8mb 49f 46f
9:00 4.5ft 5s 25 29 mph 1019.1mb 49f 46f
8:00 4.5ft 6s 22 27 mph 1018.7mb 49f 46f